Time;durP1;ratioP1;P1;durP2;ratioP2;P2;SDS_P1;SDS_P2;PMS_P1;PMS_P2;Temp;Humidity;BMP_temperature;BMP_pressure;BME280_temperature;BME280_humidity;BME280_pressure;Samples;Min_cycle;Max_cycle;Signal;HPM_P1;HPM_P2
2024/01/26 07:13:54;;;;;;;;;;;;;;;11.33;70.50;98235.59;4231384;27;10409;-66
2024/01/26 07:15:56;;;;;;;;;;;;;;;11.63;70.39;98236.78;4231755;28;6406;-67
2024/01/26 07:18:00;;;;;;;;;;;;;;;11.86;69.86;98239.63;4230636;28;6584;-67
2024/01/26 07:20:03;;;;;;;;;;;;;;;12.04;69.16;98239.47;4229919;28;5802;-66
2024/01/26 07:22:06;;;;;;;;;;;;;;;12.18;69.19;98236.13;4230515;28;6842;-65
2024/01/26 07:24:10;;;;;;;;;;;;;;;12.31;68.64;98240.91;4228278;28;5680;-66
2024/01/26 07:26:19;;;;;;;;;;;;;;;12.41;68.35;98240.72;4223833;28;5760;-65
2024/01/26 07:28:20;;;;;;;;;;;;;;;12.49;67.94;98241.53;4230423;28;5673;-66
2024/01/26 07:30:25;;;;;;;;;;;;;;;12.55;67.95;98237.38;4231425;28;5813;-66
2024/01/26 07:32:28;;;;;;;;;;;;;;;12.61;67.47;98242.00;4230613;28;5681;-68
2024/01/26 07:34:31;;;;;;;;;;;;;;;12.67;67.20;98243.13;4223726;28;5689;-67
2024/01/26 07:36:36;;;;;;;;;;;;;;;12.71;67.28;98242.66;4220485;28;5682;-66
2024/01/26 07:38:38;;;;;;;;;;;;;;;12.73;67.10;98251.25;4229450;28;5673;-66
2024/01/26 07:40:41;;;;;;;;;;;;;;;12.76;66.84;98258.88;4226396;28;5705;-66
2024/01/26 07:42:44;;;;;;;;;;;;;;;12.77;66.83;98255.22;4230042;28;6354;-67
2024/01/26 07:44:47;;;;;;;;;;;;;;;12.79;66.76;98257.69;4228060;28;5866;-67
2024/01/26 07:46:51;;;;;;;;;;;;;;;12.80;66.69;98249.59;4231204;28;5673;-67
2024/01/26 07:48:55;;;;;;;;;;;;;;;12.82;66.56;98250.22;4225190;28;5772;-66
2024/01/26 07:50:59;;;;;;;;;;;;;;;12.86;66.52;98271.13;4231085;28;5689;-65
2024/01/26 07:53:02;;;;;;;;;;;;;;;12.87;66.28;98262.16;4229028;27;5748;-66
2024/01/26 07:55:05;;;;;;;;;;;;;;;12.86;66.01;98249.88;4224357;28;5695;-66
2024/01/26 07:57:08;;;;;;;;;;;;;;;12.87;65.98;98240.91;4227941;28;5732;-66
2024/01/26 07:59:12;;;;;;;;;;;;;;;12.88;65.88;98222.16;4230409;28;5692;-65
2024/01/26 08:01:15;;;;;;;;;;;;;;;12.92;65.84;98222.66;4230435;28;5697;-66
2024/01/26 08:03:19;;;;;;;;;;;;;;;12.94;65.95;98221.47;4230199;28;5652;-66
2024/01/26 08:05:22;;;;;;;;;;;;;;;12.97;65.64;98238.88;4229671;28;5669;-65
2024/01/26 08:07:25;;;;;;;;;;;;;;;13.01;65.78;98234.88;4229328;28;5613;-66
2024/01/26 08:09:29;;;;;;;;;;;;;;;13.03;65.68;98230.25;4230695;28;5763;-66
2024/01/26 08:11:32;;;;;;;;;;;;;;;13.06;65.47;98241.34;4229505;28;5669;-65
2024/01/26 08:13:36;;;;;;;;;;;;;;;13.08;65.31;98251.78;4226082;28;5097;-66
2024/01/26 08:15:39;;;;;;;;;;;;;;;13.08;65.27;98259.75;4218948;28;5668;-66
2024/01/26 08:17:42;;;;;;;;;;;;;;;13.09;65.25;98251.59;4219126;28;5658;-65
2024/01/26 08:19:47;;;;;;;;;;;;;;;13.12;65.29;98250.41;4218213;28;5680;-66
2024/01/26 08:21:50;;;;;;;;;;;;;;;13.15;65.14;98260.72;4219250;28;5680;-66
2024/01/26 08:23:55;;;;;;;;;;;;;;;13.18;65.04;98270.97;4218940;28;6339;-66
2024/01/26 08:25:59;;;;;;;;;;;;;;;13.20;64.88;98269.00;4211462;28;5657;-67
2024/01/26 08:28:02;;;;;;;;;;;;;;;13.22;64.98;98260.84;4219122;28;5789;-67
2024/01/26 08:30:06;;;;;;;;;;;;;;;13.25;64.65;98256.06;4218030;28;5748;-67
2024/01/26 08:32:10;;;;;;;;;;;;;;;13.29;64.46;98252.03;4215442;28;5664;-67
2024/01/26 08:34:13;;;;;;;;;;;;;;;13.31;64.44;98255.34;4217409;28;5901;-67
2024/01/26 08:36:17;;;;;;;;;;;;;;;13.33;64.35;98255.97;4218535;28;5748;-67
2024/01/26 08:38:20;;;;;;;;;;;;;;;13.33;64.33;98255.97;4218735;28;5668;-66
2024/01/26 08:40:24;;;;;;;;;;;;;;;13.32;64.20;98264.94;4218122;28;5740;-66
2024/01/26 08:42:27;;;;;;;;;;;;;;;13.34;64.22;98267.44;4218890;28;5780;-66
2024/01/26 08:44:30;;;;;;;;;;;;;;;13.34;64.19;98260.28;4218905;28;5752;-66
2024/01/26 08:46:34;;;;;;;;;;;;;;;13.37;64.05;98262.63;4218570;28;5843;-66
2024/01/26 08:48:37;;;;;;;;;;;;;;;13.39;63.97;98251.81;4217443;28;5786;-66
2024/01/26 08:50:41;;;;;;;;;;;;;;;13.40;63.88;98254.28;4218327;28;5669;-67
2024/01/26 08:52:45;;;;;;;;;;;;;;;13.42;63.82;98254.09;4217471;28;5669;-67
2024/01/26 08:54:48;;;;;;;;;;;;;;;13.42;63.51;98248.78;4218430;28;5684;-66
2024/01/26 08:56:52;;;;;;;;;;;;;;;13.43;63.42;98249.63;4218689;28;5692;-67
2024/01/26 08:58:55;;;;;;;;;;;;;;;13.43;63.17;98247.78;4210827;28;5697;-67
2024/01/26 09:01:00;;;;;;;;;;;;;;;13.47;63.02;98253.56;4218804;28;5673;-67
2024/01/26 09:03:03;;;;;;;;;;;;;;;13.49;63.14;98257.72;4217128;28;5847;-67
2024/01/26 09:05:09;;;;;;;;;;;;;;;13.51;63.03;98261.03;4217412;28;5739;-67
2024/01/26 09:07:12;;;;;;;;;;;;;;;13.50;62.83;98259.38;4218556;28;5668;-67
2024/01/26 09:09:17;;;;;;;;;;;;;;;13.51;62.79;98257.56;4214352;28;5682;-67
2024/01/26 09:11:20;;;;;;;;;;;;;;;13.53;62.66;98260.84;4208764;28;5141;-67
2024/01/26 09:13:23;;;;;;;;;;;;;;;13.56;62.53;98263.16;4213395;28;5813;-67
2024/01/26 09:15:26;;;;;;;;;;;;;;;13.58;62.45;98261.97;4213699;28;5736;-67
2024/01/26 09:17:27;;;;;;;;;;;;;;;13.62;62.22;98262.47;4213922;28;5673;-66
2024/01/26 09:19:30;;;;;;;;;;;;;;;13.63;62.35;98256.97;4216568;28;5664;-66
2024/01/26 09:21:33;;;;;;;;;;;;;;;13.64;62.05;98266.59;4217116;28;5779;-66
2024/01/26 09:23:37;;;;;;;;;;;;;;;13.65;61.92;98260.25;4216939;28;5673;-66
2024/01/26 09:25:41;;;;;;;;;;;;;;;13.66;61.97;98266.41;4216732;28;5692;-67
2024/01/26 09:27:45;;;;;;;;;;;;;;;13.66;61.86;98256.59;4217600;28;5674;-67
2024/01/26 09:29:47;;;;;;;;;;;;;;;13.66;61.77;98258.44;4217683;28;5682;-67
2024/01/26 09:31:50;;;;;;;;;;;;;;;13.68;61.85;98261.72;4217533;28;5723;-67
2024/01/26 09:33:53;;;;;;;;;;;;;;;13.69;61.55;98269.53;4209959;28;5764;-67
2024/01/26 09:35:57;;;;;;;;;;;;;;;13.69;61.57;98274.03;4212514;28;5748;-66
2024/01/26 09:38:00;;;;;;;;;;;;;;;13.70;61.30;98280.97;4217580;28;5811;-66
2024/01/26 09:40:04;;;;;;;;;;;;;;;13.69;61.00;98279.34;4217580;28;5658;-66
2024/01/26 09:42:09;;;;;;;;;;;;;;;13.69;61.20;98274.84;4217541;28;5712;-66
2024/01/26 09:44:12;;;;;;;;;;;;;;;13.73;61.16;98279.81;4217350;28;5673;-66
2024/01/26 09:46:15;;;;;;;;;;;;;;;13.73;60.90;98280.66;4216014;28;5681;-66
2024/01/26 09:48:19;;;;;;;;;;;;;;;13.75;60.73;98280.47;4215980;28;5077;-66
2024/01/26 09:50:21;;;;;;;;;;;;;;;13.75;60.62;98278.63;4214459;28;5685;-67
2024/01/26 09:52:24;;;;;;;;;;;;;;;13.76;60.57;98282.94;4211214;28;5756;-67
2024/01/26 09:54:28;;;;;;;;;;;;;;;13.75;60.47;98288.44;4217879;28;5708;-67
2024/01/26 09:56:32;;;;;;;;;;;;;;;13.74;60.42;98284.97;4210092;28;5668;-66
2024/01/26 09:58:40;;;;;;;;;;;;;;;13.73;60.24;98275.34;4217601;28;5681;-67
2024/01/26 10:00:45;;;;;;;;;;;;;;;13.71;60.21;98272.03;4217043;28;5794;-65
2024/01/26 10:02:49;;;;;;;;;;;;;;;13.70;60.11;98275.66;4211812;28;5759;-66
2024/01/26 10:04:52;;;;;;;;;;;;;;;13.70;60.21;98291.63;4208594;28;5677;-67
2024/01/26 10:06:56;;;;;;;;;;;;;;;13.66;60.13;98291.16;4208134;28;5676;-66
2024/01/26 10:08:59;;;;;;;;;;;;;;;13.62;59.92;98302.31;4212143;28;5694;-68
2024/01/26 10:11:03;;;;;;;;;;;;;;;13.59;59.69;98310.63;4210366;28;5673;-69
2024/01/26 10:13:06;;;;;;;;;;;;;;;13.57;59.27;98304.66;4217149;28;5681;-69
2024/01/26 10:15:10;;;;;;;;;;;;;;;13.53;59.59;98306.03;4215639;28;5657;-65
2024/01/26 10:17:17;;;;;;;;;;;;;;;13.55;59.50;98307.50;4202531;28;5635;-66
2024/01/26 10:19:24;;;;;;;;;;;;;;;13.54;59.45;98284.59;4212293;28;5676;-64
2024/01/26 10:21:28;;;;;;;;;;;;;;;13.55;59.53;98274.78;4216901;28;5685;-64
2024/01/26 10:23:31;;;;;;;;;;;;;;;13.57;59.35;98275.44;4215759;28;5672;-66
2024/01/26 10:25:36;;;;;;;;;;;;;;;13.59;59.37;98281.38;4216868;28;5661;-65
2024/01/26 10:27:38;;;;;;;;;;;;;;;13.57;59.11;98280.75;4215572;28;5743;-65
2024/01/26 10:29:44;;;;;;;;;;;;;;;13.55;59.22;98272.13;4213572;28;5816;-66
2024/01/26 10:31:50;;;;;;;;;;;;;;;13.56;59.31;98285.22;4217075;28;5665;-66
2024/01/26 10:33:55;;;;;;;;;;;;;;;13.55;59.00;98272.94;4213778;28;5665;-65
2024/01/26 10:36:00;;;;;;;;;;;;;;;13.58;59.03;98269.09;4217307;28;5768;-65
2024/01/26 10:38:05;;;;;;;;;;;;;;;13.61;59.06;98258.16;4215408;28;5933;-66
2024/01/26 10:40:12;;;;;;;;;;;;;;;13.63;58.87;98253.47;4216927;28;5672;-66
2024/01/26 10:42:15;;;;;;;;;;;;;;;13.68;58.83;98257.25;4216282;28;5755;-65
2024/01/26 10:44:19;;;;;;;;;;;;;;;13.73;58.92;98258.56;4211069;28;5668;-66
2024/01/26 10:46:22;;;;;;;;;;;;;;;13.77;58.97;98259.84;4212189;28;5876;-66
2024/01/26 10:48:28;;;;;;;;;;;;;;;13.81;58.99;98269.94;4216978;28;5681;-66
2024/01/26 10:50:31;;;;;;;;;;;;;;;13.83;58.67;98262.63;4216159;28;5665;-65
2024/01/26 10:52:35;;;;;;;;;;;;;;;13.83;58.70;98275.09;4216490;28;5676;-66
2024/01/26 10:54:39;;;;;;;;;;;;;;;13.85;58.60;98273.09;4209317;28;5797;-66
2024/01/26 10:56:42;;;;;;;;;;;;;;;13.86;58.46;98267.59;4214162;28;5854;-65
2024/01/26 10:58:45;;;;;;;;;;;;;;;13.89;58.70;98264.56;4216623;28;6362;-65
2024/01/26 11:00:48;;;;;;;;;;;;;;;13.90;58.61;98266.22;4215658;28;5681;-66
2024/01/26 11:02:51;;;;;;;;;;;;;;;13.92;58.67;98258.06;4216266;28;5684;-64
2024/01/26 11:17:53;;;;;;;;;;;;;;;14.04;58.70;98274.41;4247820;27;10156;-68
2024/01/26 11:20:01;;;;;;;;;;;;;;;14.08;58.91;98260.59;4219710;28;5640;-67
2024/01/26 11:22:05;;;;;;;;;;;;;;;14.13;59.05;98250.25;4231010;28;6386;-68
2024/01/26 11:24:14;;;;;;;;;;;;;;;14.13;58.52;98247.59;4223534;28;6356;-71
2024/01/26 11:26:18;;;;;;;;;;;;;;;14.14;58.61;98251.06;4230189;28;6289;-72
2024/01/26 11:28:28;;;;;;;;;;;;;;;14.14;58.75;98259.03;4230710;28;5615;-74
2024/01/26 11:30:30;;;;;;;;;;;;;;;14.14;58.47;98262.53;4229417;28;5620;-72
2024/01/26 11:32:34;;;;;;;;;;;;;;;14.10;58.33;98271.06;4229514;28;5699;-70
2024/01/26 11:34:38;;;;;;;;;;;;;;;14.05;58.25;98263.63;4226894;28;5678;-68
2024/01/26 11:36:42;;;;;;;;;;;;;;;14.02;58.37;98257.81;4230170;28;5608;-67
2024/01/26 11:38:46;;;;;;;;;;;;;;;13.99;58.14;98261.69;4229121;28;5635;-73
2024/01/26 11:40:49;;;;;;;;;;;;;;;13.98;58.21;98254.69;4230854;28;5624;-72
2024/01/26 11:42:53;;;;;;;;;;;;;;;13.96;58.02;98251.41;4216957;28;5730;-72
2024/01/26 11:45:06;;;;;;;;;;;;;;;13.95;58.21;98250.56;4230615;28;5624;-72
2024/01/26 11:47:09;;;;;;;;;;;;;;;13.95;57.92;98247.91;4227901;28;5659;-72
2024/01/26 11:49:11;;;;;;;;;;;;;;;13.94;58.04;98250.75;4222662;28;5623;-72
2024/01/26 11:51:17;;;;;;;;;;;;;;;13.93;57.69;98255.25;4228524;28;5714;-72
2024/01/26 11:53:21;;;;;;;;;;;;;;;13.92;58.06;98234.97;4230158;28;5069;-72
2024/01/26 11:55:26;;;;;;;;;;;;;;;13.92;57.84;98231.47;4228933;28;5596;-72
2024/01/26 11:57:32;;;;;;;;;;;;;;;13.93;57.89;98243.75;4225154;28;5726;-72
2024/01/26 11:59:35;;;;;;;;;;;;;;;13.93;57.74;98243.75;4226275;28;5676;-72
2024/01/26 12:01:39;;;;;;;;;;;;;;;13.91;57.80;98235.97;4230405;28;5620;-72
2024/01/26 12:03:41;;;;;;;;;;;;;;;13.90;57.87;98229.00;4214417;28;5710;-71
2024/01/26 12:05:44;;;;;;;;;;;;;;;13.91;57.84;98225.34;4229176;28;5620;-71
2024/01/26 12:07:48;;;;;;;;;;;;;;;13.91;57.59;98230.66;4230100;28;5616;-72
2024/01/26 12:09:52;;;;;;;;;;;;;;;13.89;57.71;98235.31;4221228;28;5623;-72
2024/01/26 12:11:55;;;;;;;;;;;;;;;13.89;57.71;98235.31;4228718;28;5688;-71
2024/01/26 12:13:58;;;;;;;;;;;;;;;13.89;57.53;98226.53;4228410;28;5841;-72
2024/01/26 12:16:04;;;;;;;;;;;;;;;13.79;56.92;98226.78;4228193;28;5612;-70
2024/01/26 12:18:09;;;;;;;;;;;;;;;13.67;57.03;98210.41;4214328;28;5819;-71
2024/01/26 12:20:13;;;;;;;;;;;;;;;13.69;57.24;98215.56;4210072;28;5628;-71
2024/01/26 12:22:15;;;;;;;;;;;;;;;13.72;57.11;98209.91;4218430;28;5861;-72
2024/01/26 12:24:19;;;;;;;;;;;;;;;13.75;57.25;98220.16;4209758;28;5624;-72
2024/01/26 12:26:22;;;;;;;;;;;;;;;13.75;56.41;98220.16;4214236;28;5682;-73
2024/01/26 12:28:26;;;;;;;;;;;;;;;13.72;56.46;98215.22;4219595;28;5680;-71
2024/01/26 12:30:29;;;;;;;;;;;;;;;13.72;56.80;98220.53;4217345;28;5616;-72
2024/01/26 12:32:32;;;;;;;;;;;;;;;13.76;56.71;98221.81;4218338;28;5611;-72
2024/01/26 12:34:36;;;;;;;;;;;;;;;13.79;56.47;98221.47;4210290;28;5624;-73
2024/01/26 12:36:39;;;;;;;;;;;;;;;13.78;56.50;98222.47;4218220;28;5084;-70
2024/01/26 12:38:42;;;;;;;;;;;;;;;13.79;56.47;98221.47;4212037;28;5612;-66
2024/01/26 12:40:47;;;;;;;;;;;;;;;13.82;56.78;98210.50;4217171;28;5604;-66
2024/01/26 12:42:52;;;;;;;;;;;;;;;13.86;56.79;98206.44;4217209;28;5843;-65
2024/01/26 12:44:56;;;;;;;;;;;;;;;13.89;56.64;98206.09;4216210;28;5953;-65
2024/01/26 12:47:00;;;;;;;;;;;;;;;13.91;56.38;98204.06;4218428;28;5746;-67
2024/01/26 12:49:03;;;;;;;;;;;;;;;13.92;56.65;98205.72;4217000;28;7240;-69
2024/01/26 12:51:06;;;;;;;;;;;;;;;13.93;56.52;98199.44;4217740;28;5628;-69
2024/01/26 12:53:10;;;;;;;;;;;;;;;13.95;56.67;98200.06;4218429;28;5674;-73
2024/01/26 12:55:13;;;;;;;;;;;;;;;13.97;56.58;98205.19;4217149;28;5616;-73
2024/01/26 12:57:18;;;;;;;;;;;;;;;13.98;56.56;98209.50;4218348;28;5736;-69
2024/01/26 12:59:21;;;;;;;;;;;;;;;13.97;56.50;98211.34;4217010;28;5608;-72
2024/01/26 13:01:24;;;;;;;;;;;;;;;13.98;56.54;98220.97;4200489;28;5853;-73
2024/01/26 13:03:27;;;;;;;;;;;;;;;14.00;56.50;98212.81;4213440;28;5627;-70
2024/01/26 13:05:30;;;;;;;;;;;;;;;13.99;56.45;98217.28;4216991;28;5636;-71
2024/01/26 13:07:32;;;;;;;;;;;;;;;14.01;56.40;98221.59;4215088;28;5710;-73
2024/01/26 13:09:36;;;;;;;;;;;;;;;14.00;56.40;98218.13;4216005;28;5809;-76
2024/01/26 13:11:39;;;;;;;;;;;;;;;14.00;56.53;98204.81;4214704;28;5621;-77
2024/01/26 13:13:43;;;;;;;;;;;;;;;14.01;56.59;98203.00;4217155;28;5759;-74
2024/01/26 13:15:45;;;;;;;;;;;;;;;14.00;56.68;98204.81;4215285;28;6236;-76
2024/01/26 13:17:49;;;;;;;;;;;;;;;14.00;56.37;98207.50;4200491;28;5904;-76
2024/01/26 13:19:52;;;;;;;;;;;;;;;14.01;56.54;98210.97;4193348;28;5726;-73
2024/01/26 13:22:07;;;;;;;;;;;;;;;13.99;56.43;98214.63;4201219;28;5698;-75
2024/01/26 13:24:10;;;;;;;;;;;;;;;14.01;56.41;98216.28;4201042;28;5833;-74
2024/01/26 13:26:12;;;;;;;;;;;;;;;13.98;56.33;98215.66;4174618;28;5629;-76
2024/01/26 13:28:15;;;;;;;;;;;;;;;13.98;56.58;98222.81;4193086;28;5615;-75
2024/01/26 13:30:18;;;;;;;;;;;;;;;13.97;56.43;98221.16;4198604;28;5709;-75
2024/01/26 13:32:22;;;;;;;;;;;;;;;13.97;56.53;98229.94;4200784;28;5836;-75
2024/01/26 13:34:23;;;;;;;;;;;;;;;13.97;56.54;98223.81;4195871;28;5633;-76
2024/01/26 13:36:26;;;;;;;;;;;;;;;13.97;56.57;98235.28;4196980;28;5714;-76
2024/01/26 13:38:32;;;;;;;;;;;;;;;13.97;56.71;98226.47;4192070;28;5646;-75
2024/01/26 13:40:35;;;;;;;;;;;;;;;13.96;56.67;98228.31;4191330;28;5631;-76
2024/01/26 13:42:41;;;;;;;;;;;;;;;13.96;56.64;98232.78;4192131;28;5698;-75
2024/01/26 13:44:44;;;;;;;;;;;;;;;13.96;56.63;98230.13;4192366;28;5722;-75
2024/01/26 13:46:49;;;;;;;;;;;;;;;13.95;56.60;98229.31;4192621;28;5687;-76
2024/01/26 13:48:52;;;;;;;;;;;;;;;13.96;56.64;98225.66;4187278;28;5453;-76
2024/01/26 13:50:56;;;;;;;;;;;;;;;13.95;56.78;98221.34;4193220;28;7166;-75
2024/01/26 13:52:59;;;;;;;;;;;;;;;13.90;56.38;98233.50;4200467;28;5627;-75
2024/01/26 13:55:02;;;;;;;;;;;;;;;13.89;56.79;98235.31;4192356;28;5654;-76
2024/01/26 13:57:04;;;;;;;;;;;;;;;13.91;56.71;98241.28;4200273;28;5639;-71
2024/01/26 13:59:07;;;;;;;;;;;;;;;13.90;56.70;98234.31;4198270;28;5733;-69
2024/01/26 14:01:10;;;;;;;;;;;;;;;13.91;56.84;98222.69;4194084;28;5980;-71
2024/01/26 14:03:15;;;;;;;;;;;;;;;13.94;56.64;98221.53;4185451;28;5805;-73
2024/01/26 14:05:18;;;;;;;;;;;;;;;13.95;56.54;98213.34;4196502;28;5730;-73
2024/01/26 14:07:22;;;;;;;;;;;;;;;13.97;56.79;98218.50;4198927;28;5623;-73
2024/01/26 14:09:25;;;;;;;;;;;;;;;13.98;56.70;98223.63;4197596;28;5647;-69
2024/01/26 14:11:28;;;;;;;;;;;;;;;13.97;56.59;98224.63;4199461;28;5705;-72
2024/01/26 14:13:31;;;;;;;;;;;;;;;13.96;56.71;98222.97;4200388;28;5734;-73
2024/01/26 14:15:36;;;;;;;;;;;;;;;13.93;56.72;98226.00;4195307;28;5702;-67
2024/01/26 14:17:40;;;;;;;;;;;;;;;13.91;56.55;98225.34;4209494;28;5666;-72
2024/01/26 14:19:44;;;;;;;;;;;;;;;13.86;56.71;98227.72;4209316;28;5615;-72
2024/01/26 14:21:47;;;;;;;;;;;;;;;13.83;56.69;98232.56;4208549;28;5623;-69
2024/01/26 14:23:49;;;;;;;;;;;;;;;13.80;56.93;98241.72;4207026;28;5600;-75
2024/01/26 14:25:54;;;;;;;;;;;;;;;13.80;57.04;98249.69;4208734;28;5648;-75
2024/01/26 14:27:57;;;;;;;;;;;;;;;13.80;56.89;98238.22;4207622;28;5610;-75
2024/01/26 14:30:01;;;;;;;;;;;;;;;13.80;57.11;98239.06;4207122;28;5623;-75
2024/01/26 14:32:03;;;;;;;;;;;;;;;13.78;56.81;98238.41;4215531;28;5624;-74
2024/01/26 14:34:06;;;;;;;;;;;;;;;13.79;57.07;98237.41;4201442;28;5739;-75
2024/01/26 14:36:11;;;;;;;;;;;;;;;13.81;57.10;98239.88;4206799;28;5787;-76
2024/01/26 14:38:14;;;;;;;;;;;;;;;13.80;57.12;98247.03;4202409;28;5830;-76
2024/01/26 14:40:17;;;;;;;;;;;;;;;13.79;56.85;98242.72;4211298;28;5611;-76
2024/01/26 14:42:21;;;;;;;;;;;;;;;13.78;56.99;98238.41;4202908;28;5170;-76
2024/01/26 14:44:25;;;;;;;;;;;;;;;13.76;56.94;98240.44;4203135;28;7684;-76
2024/01/26 14:46:29;;;;;;;;;;;;;;;13.77;56.92;98243.91;4200832;28;6313;-76
2024/01/26 14:48:33;;;;;;;;;;;;;;;13.69;56.76;98248.25;4204166;28;5818;-76
2024/01/26 14:50:36;;;;;;;;;;;;;;;13.67;56.95;98254.78;4207890;28;5774;-73
2024/01/26 14:52:42;;;;;;;;;;;;;;;13.70;57.10;98265.03;4211906;28;6427;-71
2024/01/26 14:54:45;;;;;;;;;;;;;;;13.72;57.08;98251.59;4210300;28;5823;-72
2024/01/26 14:56:48;;;;;;;;;;;;;;;13.71;57.12;98261.41;4211249;28;5619;-73
2024/01/26 14:58:51;;;;;;;;;;;;;;;13.76;56.84;98268.84;4215243;28;5684;-73
2024/01/26 15:00:53;;;;;;;;;;;;;;;13.77;57.10;98270.47;4209116;28;5660;-73
2024/01/26 15:02:56;;;;;;;;;;;;;;;13.81;57.22;98275.25;4206720;28;5600;-72
2024/01/26 15:04:59;;;;;;;;;;;;;;;13.85;57.12;98273.09;4216152;28;5608;-75
2024/01/26 15:07:03;;;;;;;;;;;;;;;13.89;56.97;98269.88;4208878;28;5803;-73
2024/01/26 15:09:08;;;;;;;;;;;;;;;13.92;56.93;98269.53;4212444;28;5631;-74
2024/01/26 15:11:12;;;;;;;;;;;;;;;13.93;57.02;98273.88;4208580;28;5887;-73
2024/01/26 15:13:14;;;;;;;;;;;;;;;13.94;57.02;98280.84;4210716;28;5626;-75
2024/01/26 15:15:18;;;;;;;;;;;;;;;13.95;57.08;98271.84;4212559;28;5763;-71
2024/01/26 15:17:23;;;;;;;;;;;;;;;13.96;57.33;98267.34;4212269;28;5727;-69
2024/01/26 15:19:26;;;;;;;;;;;;;;;13.95;57.29;98268.38;4213534;28;5702;-71
2024/01/26 15:21:29;;;;;;;;;;;;;;;13.97;57.24;98283.13;4215680;28;5711;-75
2024/01/26 15:23:33;;;;;;;;;;;;;;;13.98;57.28;98290.09;4208973;28;5911;-70
2024/01/26 15:25:37;;;;;;;;;;;;;;;13.99;57.40;98286.44;4212524;28;6452;-71
2024/01/26 15:27:40;;;;;;;;;;;;;;;13.99;57.40;98283.78;4213315;28;5868;-75
2024/01/26 15:29:42;;;;;;;;;;;;;;;14.02;57.51;98284.41;4213551;28;5702;-74
2024/01/26 15:31:45;;;;;;;;;;;;;;;14.01;57.58;98277.44;4214648;28;5622;-70
2024/01/26 15:33:49;;;;;;;;;;;;;;;14.01;57.34;98280.94;4214203;28;6412;-70
2024/01/26 15:35:52;;;;;;;;;;;;;;;13.99;57.55;98285.59;4211288;28;5706;-70
2024/01/26 15:37:55;;;;;;;;;;;;;;;13.99;57.65;98299.72;4215389;28;5604;-75
2024/01/26 15:39:58;;;;;;;;;;;;;;;13.99;57.60;98299.72;4215777;28;5748;-73
2024/01/26 15:42:04;;;;;;;;;;;;;;;13.99;57.65;98297.06;4213550;28;6096;-72
2024/01/26 15:44:09;;;;;;;;;;;;;;;13.97;57.64;98293.75;4215676;28;5620;-71
2024/01/26 15:46:10;;;;;;;;;;;;;;;13.93;57.71;98300.44;4216139;28;5604;-75
2024/01/26 15:48:13;;;;;;;;;;;;;;;13.90;57.84;98298.13;4216001;28;6289;-70
2024/01/26 15:50:17;;;;;;;;;;;;;;;13.87;58.03;98306.47;4215264;28;5612;-70
2024/01/26 15:52:19;;;;;;;;;;;;;;;13.85;57.90;98303.16;4215744;28;5637;-68
2024/01/26 15:54:32;;;;;;;;;;;;;;;13.84;58.17;98308.66;4219106;28;6428;-74
2024/01/26 15:56:37;;;;;;;;;;;;;;;13.82;58.31;98316.81;4217793;28;5714;-75
2024/01/26 15:58:42;;;;;;;;;;;;;;;13.83;58.34;98310.50;4216614;28;5789;-73
2024/01/26 16:00:45;;;;;;;;;;;;;;;13.83;58.34;98313.16;4218775;28;5894;-73
2024/01/26 16:02:48;;;;;;;;;;;;;;;13.84;58.38;98314.81;4214427;28;5604;-72
2024/01/26 16:04:52;;;;;;;;;;;;;;;13.87;58.51;98324.25;4218229;28;5698;-69
2024/01/26 16:06:55;;;;;;;;;;;;;;;13.88;58.42;98326.72;4217824;28;5751;-76
2024/01/26 16:08:58;;;;;;;;;;;;;;;13.89;58.54;98328.38;4211381;28;7634;-72
2024/01/26 16:11:00;;;;;;;;;;;;;;;13.90;58.50;98345.16;4217307;28;5679;-74
2024/01/26 16:13:03;;;;;;;;;;;;;;;13.90;58.64;98340.66;4218712;28;5679;-71
2024/01/26 16:15:09;;;;;;;;;;;;;;;13.86;58.41;98339.38;4210551;28;5620;-70
2024/01/26 16:17:13;;;;;;;;;;;;;;;13.82;58.85;98351.38;4216108;28;5608;-71
2024/01/26 16:19:16;;;;;;;;;;;;;;;13.79;58.98;98349.03;4215282;28;5857;-71
2024/01/26 16:21:19;;;;;;;;;;;;;;;13.78;59.14;98352.69;4218567;28;5707;-72
2024/01/26 16:23:22;;;;;;;;;;;;;;;13.78;59.13;98352.69;4217852;28;5612;-77
2024/01/26 16:25:25;;;;;;;;;;;;;;;13.80;59.14;98348.03;4218547;28;5604;-75
2024/01/26 16:27:28;;;;;;;;;;;;;;;13.80;58.97;98340.06;4214952;28;6424;-74
2024/01/26 16:29:31;;;;;;;;;;;;;;;13.80;59.00;98345.38;4216255;28;5620;-69
2024/01/26 16:31:36;;;;;;;;;;;;;;;13.81;59.19;98352.34;4214949;28;5878;-71
2024/01/26 16:33:39;;;;;;;;;;;;;;;13.80;59.17;98350.69;4203539;28;5724;-71
2024/01/26 16:35:42;;;;;;;;;;;;;;;13.81;59.31;98356.84;4218166;28;5675;-70
2024/01/26 16:37:45;;;;;;;;;;;;;;;13.80;59.35;98363.97;4202888;28;5734;-70
2024/01/26 16:39:48;;;;;;;;;;;;;;;13.81;59.44;98364.81;4218138;28;5733;-74
2024/01/26 16:41:51;;;;;;;;;;;;;;;13.80;59.41;98366.63;4218724;28;5644;-71
2024/01/26 16:43:54;;;;;;;;;;;;;;;13.81;59.62;98367.47;4210902;28;5703;-70
2024/01/26 16:45:57;;;;;;;;;;;;;;;13.79;59.67;98372.13;4207521;28;5762;-72
2024/01/26 16:48:01;;;;;;;;;;;;;;;13.78;59.52;98379.28;4210907;28;5620;-69
2024/01/26 16:50:05;;;;;;;;;;;;;;;13.78;59.74;98373.97;4213157;28;5790;-74
2024/01/26 16:52:10;;;;;;;;;;;;;;;13.80;59.63;98371.13;4218490;28;5760;-74
2024/01/26 16:54:13;;;;;;;;;;;;;;;13.80;59.85;98369.28;4218533;28;5124;-76
2024/01/26 16:56:16;;;;;;;;;;;;;;;13.80;59.65;98363.16;4207841;28;5624;-76
2024/01/26 16:58:18;;;;;;;;;;;;;;;13.80;59.94;98369.28;4213486;28;5616;-76
2024/01/26 17:00:22;;;;;;;;;;;;;;;13.81;59.86;98362.97;4215992;28;5794;-75
2024/01/26 17:02:25;;;;;;;;;;;;;;;13.83;59.93;98368.97;4212082;28;5619;-72
2024/01/26 17:04:29;;;;;;;;;;;;;;;13.85;60.21;98376.75;4208963;28;5638;-74
2024/01/26 17:06:32;;;;;;;;;;;;;;;13.85;60.26;98379.41;4218238;28;5601;-75
2024/01/26 17:08:36;;;;;;;;;;;;;;;13.87;60.09;98382.72;4219222;28;5631;-71
2024/01/26 17:10:39;;;;;;;;;;;;;;;13.89;60.35;98386.03;4217475;28;5624;-73
2024/01/26 17:12:42;;;;;;;;;;;;;;;13.89;60.41;98383.38;4216003;28;5671;-71
2024/01/26 17:14:45;;;;;;;;;;;;;;;13.88;60.27;98385.22;4210703;28;5739;-78
2024/01/26 17:16:48;;;;;;;;;;;;;;;13.90;60.34;98393.84;4215419;28;5718;-78
2024/01/26 17:18:52;;;;;;;;;;;;;;;13.90;60.49;98393.00;4217720;28;5996;-76
2024/01/26 17:20:57;;;;;;;;;;;;;;;13.91;60.45;98392.81;4210252;28;7712;-76
2024/01/26 17:23:00;;;;;;;;;;;;;;;13.93;60.70;98397.97;4217184;28;5817;-76
2024/01/26 17:25:04;;;;;;;;;;;;;;;13.95;60.53;98402.13;4216783;28;5628;-78
2024/01/26 17:27:07;;;;;;;;;;;;;;;13.96;60.48;98405.59;4218474;28;5620;-77
2024/01/26 17:29:10;;;;;;;;;;;;;;;13.97;60.76;98405.44;4216555;28;5767;-79
2024/01/26 17:31:14;;;;;;;;;;;;;;;13.98;60.54;98415.06;4213125;28;5636;-79
2024/01/26 17:33:17;;;;;;;;;;;;;;;13.99;60.76;98414.06;4206841;28;5636;-79
2024/01/26 17:35:20;;;;;;;;;;;;;;;13.99;60.80;98414.06;4214135;28;5616;-77
2024/01/26 17:37:25;;;;;;;;;;;;;;;14.01;60.71;98421.03;4210191;28;5543;-78
2024/01/26 17:39:28;;;;;;;;;;;;;;;13.99;60.55;98414.06;4207428;28;5913;-77
2024/01/26 17:41:31;;;;;;;;;;;;;;;13.99;60.81;98413.22;4207613;28;6812;-71
2024/01/26 17:43:35;;;;;;;;;;;;;;;13.98;60.93;98407.09;4213364;28;5754;-74
2024/01/26 17:45:37;;;;;;;;;;;;;;;13.97;60.76;98409.91;4211393;28;5826;-71
2024/01/26 17:47:43;;;;;;;;;;;;;;;13.91;60.85;98405.28;4215667;28;5699;-74
2024/01/26 17:49:47;;;;;;;;;;;;;;;13.91;61.08;98414.09;4197452;28;6665;-72
2024/01/26 17:51:52;;;;;;;;;;;;;;;13.89;61.02;98410.78;4214390;28;5703;-76
2024/01/26 17:53:57;;;;;;;;;;;;;;;13.91;61.21;98406.13;4209092;28;5687;-73
2024/01/26 17:56:00;;;;;;;;;;;;;;;13.89;60.93;98413.44;4213692;28;5626;-74
2024/01/26 17:58:05;;;;;;;;;;;;;;;13.87;61.09;98415.47;4206076;28;5718;-72
2024/01/26 18:00:09;;;;;;;;;;;;;;;13.85;61.22;98417.47;4211086;28;5648;-67
2024/01/26 18:02:13;;;;;;;;;;;;;;;13.83;61.16;98429.28;4212650;28;5754;-72
2024/01/26 18:04:16;;;;;;;;;;;;;;;13.80;60.95;98430.44;4214580;28;5209;-73
2024/01/26 18:06:18;;;;;;;;;;;;;;;13.78;61.38;98432.44;4200674;28;7683;-68
2024/01/26 18:08:21;;;;;;;;;;;;;;;13.80;61.26;98434.91;4204910;28;5600;-67
2024/01/26 18:10:26;;;;;;;;;;;;;;;13.80;61.21;98432.25;4216367;28;5620;-74
2024/01/26 18:12:29;;;;;;;;;;;;;;;13.79;61.28;98426.13;4212085;28;5701;-71
2024/01/26 18:14:31;;;;;;;;;;;;;;;13.81;61.26;98429.44;4214893;28;5609;-66
2024/01/26 18:16:34;;;;;;;;;;;;;;;13.82;61.29;98432.94;4214373;28;5616;-66
2024/01/26 18:18:37;;;;;;;;;;;;;;;13.82;61.25;98433.78;4217687;28;5620;-68